createdAt,value
2023-02-11T00:02:10.213Z,102885.22
2023-02-11T00:06:42.024Z,102890.47
2023-02-11T00:11:08.177Z,102902.63
2023-02-11T00:15:26.364Z,102891.97
2023-02-11T00:19:29.285Z,102881.00
2023-02-11T00:23:36.139Z,102895.06
2023-02-11T00:27:40.726Z,102888.81
2023-02-11T00:31:44.772Z,102887.97
2023-02-11T00:35:48.318Z,102908.56
2023-02-11T00:39:51.676Z,102914.50
2023-02-11T00:43:56.696Z,102907.09
2023-02-11T00:47:59.811Z,102903.69
2023-02-11T00:52:04.685Z,102901.84
2023-02-11T00:56:08.380Z,102902.81
2023-02-11T01:00:15.563Z,102900.84
2023-02-11T01:04:18.486Z,102894.91
2023-02-11T01:08:21.841Z,102892.94
2023-02-11T01:12:25.936Z,102874.69
2023-02-11T01:16:30.810Z,102862.00
2023-02-11T01:20:33.948Z,102873.66
2023-02-11T01:24:36.911Z,102861.31
2023-02-11T01:28:40.010Z,102868.44
2023-02-11T01:32:44.870Z,102879.41
2023-02-11T01:36:48.023Z,102889.88
2023-02-11T01:40:54.750Z,102882.13
2023-02-11T01:44:58.859Z,102879.41
2023-02-11T01:49:08.196Z,102876.53
2023-02-11T01:53:25.710Z,102877.22
2023-02-11T01:57:31.912Z,102865.91
2023-02-11T02:01:36.358Z,102846.13
2023-02-11T02:05:47.229Z,102847.97
2023-02-11T02:09:58.524Z,102853.53
2023-02-11T02:14:01.478Z,102850.69
2023-02-11T02:18:23.898Z,102833.09
2023-02-11T02:22:53.959Z,102817.03
2023-02-11T02:27:29.787Z,102853.69
2023-02-11T02:31:53.405Z,102838.50
2023-02-11T02:36:08.683Z,102830.38
2023-02-11T02:40:17.906Z,102835.78
2023-02-11T02:44:22.290Z,102833.25
2023-02-11T02:48:27.520Z,102848.63
2023-02-11T02:52:40.267Z,102839.50
2023-02-11T02:56:49.152Z,102832.91
2023-02-11T03:01:01.143Z,102816.03
2023-02-11T03:05:10.756Z,102813.31
2023-02-11T03:09:22.379Z,102811.75
2023-02-11T03:13:29.010Z,102808.94
2023-02-11T03:17:34.648Z,102806.22
2023-02-11T03:21:41.879Z,102804.53
2023-02-11T03:25:52.042Z,102805.22
2023-02-11T03:30:02.620Z,102818.19
2023-02-11T03:34:10.996Z,102804.53
2023-02-11T03:38:18.755Z,102815.47
2023-02-11T03:42:25.769Z,102816.66
2023-02-11T03:46:33.512Z,102823.09
2023-02-11T03:50:38.351Z,102832.22
2023-02-11T03:54:44.670Z,102837.63
2023-02-11T03:58:49.559Z,102833.06
2023-02-11T04:02:52.506Z,102835.06
2023-02-11T04:06:57.576Z,102843.31
2023-02-11T04:11:00.618Z,102837.44
2023-02-11T04:15:05.453Z,102847.41
2023-02-11T04:19:08.616Z,102846.56
2023-02-11T04:23:11.540Z,102839.47
2023-02-11T04:27:14.482Z,102839.78
2023-02-11T04:31:18.890Z,102838.09
2023-02-11T04:35:22.122Z,102821.88
2023-02-11T04:39:24.946Z,102834.53
2023-02-11T04:43:28.611Z,102835.06
2023-02-11T04:47:33.842Z,102834.91
2023-02-11T04:51:36.751Z,102843.03
2023-02-11T04:55:39.825Z,102834.22
2023-02-11T04:59:44.816Z,102834.75
2023-02-11T05:03:49.302Z,102837.28
2023-02-11T05:07:52.384Z,102853.31
2023-02-11T05:11:55.224Z,102844.75
2023-02-11T05:15:58.553Z,102850.16
2023-02-11T05:20:03.589Z,102838.50
2023-02-11T05:24:07.710Z,102845.09
2023-02-11T05:28:10.764Z,102839.34
2023-02-11T05:32:13.758Z,102840.19
2023-02-11T05:36:18.198Z,102836.63
2023-02-11T05:40:21.356Z,102849.97
2023-02-11T05:44:24.310Z,102839.50
2023-02-11T05:48:27.870Z,102835.78
2023-02-11T05:52:32.302Z,102828.53
2023-02-11T05:56:35.829Z,102817.38
2023-02-11T06:00:39.440Z,102830.38
2023-02-11T06:04:42.470Z,102839.34
2023-02-11T06:08:47.003Z,102828.19
2023-02-11T06:12:49.877Z,102825.34
2023-02-11T06:16:53.485Z,102817.72
2023-02-11T06:20:56.847Z,102822.09
2023-02-11T06:25:02.308Z,102817.72
2023-02-11T06:29:05.506Z,102832.06
2023-02-11T06:33:08.778Z,102839.34
2023-02-11T06:37:11.914Z,102845.41
2023-02-11T06:41:20.064Z,102841.03
2023-02-11T06:45:23.008Z,102850.34
2023-02-11T06:49:26.305Z,102846.13
2023-02-11T06:53:29.954Z,102842.06
2023-02-11T06:57:36.470Z,102857.13
2023-02-11T07:01:39.347Z,102844.78
2023-02-11T07:05:44.121Z,102847.31
2023-02-11T07:09:47.768Z,102841.91
2023-02-11T07:13:53.075Z,102832.94
2023-02-11T07:17:55.912Z,102834.28
2023-02-11T07:21:58.878Z,102835.13
2023-02-11T07:26:04.446Z,102840.00
2023-02-11T07:30:10.426Z,102833.59
2023-02-11T07:34:13.428Z,102847.97
2023-02-11T07:38:16.714Z,102846.81
2023-02-11T07:42:19.682Z,102845.94
2023-02-11T07:46:26.043Z,102858.28
2023-02-11T07:50:29.212Z,102855.28
2023-02-11T07:54:32.115Z,102863.53
2023-02-11T07:58:35.612Z,102859.84
2023-02-11T08:02:41.549Z,102860.69
2023-02-11T08:06:45.250Z,102869.31
2023-02-11T08:10:48.518Z,102882.50
2023-02-11T08:14:51.667Z,102881.16
2023-02-11T08:18:58.374Z,102887.28
2023-02-11T08:23:02.376Z,102889.47
2023-02-11T08:27:05.570Z,102891.00
2023-02-11T08:31:09.053Z,102890.84
2023-02-11T08:35:13.510Z,102888.31
2023-02-11T08:39:20.216Z,102890.50
2023-02-11T08:43:23.722Z,102889.19
2023-02-11T08:47:26.963Z,102893.75
2023-02-11T08:51:31.541Z,102897.47
2023-02-11T08:55:34.494Z,102905.78
2023-02-11T08:59:39.970Z,102910.69
2023-02-11T09:03:43.182Z,102905.63
2023-02-11T09:07:47.665Z,102921.56
2023-02-11T09:11:50.684Z,102920.19
2023-02-11T09:15:53.495Z,102925.97
2023-02-11T09:19:56.504Z,102924.78
2023-02-11T09:24:00.903Z,102928.03
2023-02-11T09:28:04.152Z,102937.50
2023-02-11T09:32:09.850Z,102943.25
2023-02-11T09:36:13.363Z,102953.75
2023-02-11T09:40:19.911Z,102949.69
2023-02-11T09:44:25.873Z,102959.38
2023-02-11T09:48:37.762Z,102966.97
2023-02-11T09:52:47.369Z,102968.00
2023-02-11T09:56:52.309Z,102977.13
2023-02-11T10:01:08.521Z,102974.09
2023-02-11T10:05:25.844Z,102979.34
2023-02-11T10:09:50.898Z,102979.19
2023-02-11T10:14:07.311Z,102993.25
2023-02-11T10:18:29.716Z,103011.19
2023-02-11T10:22:50.389Z,103027.81
2023-02-11T10:26:53.798Z,103015.47
2023-02-11T10:31:01.736Z,103009.69
2023-02-11T10:35:15.545Z,103009.38
2023-02-11T10:39:21.067Z,103014.63
2023-02-11T10:43:28.393Z,103026.00
2023-02-11T10:47:38.092Z,103029.75
2023-02-11T10:51:41.208Z,103029.38
2023-02-11T10:55:52.339Z,103022.78
2023-02-11T11:00:00.523Z,103026.84
2023-02-11T11:04:04.958Z,103025.78
2023-02-11T11:08:10.100Z,103014.25
2023-02-11T11:12:25.895Z,103005.28
2023-02-11T11:16:30.954Z,103011.91
2023-02-11T11:20:36.467Z,103018.84
2023-02-11T11:24:54.065Z,103027.59
2023-02-11T11:29:02.862Z,103023.19
2023-02-11T11:33:06.251Z,103024.34
2023-02-11T11:37:16.050Z,103021.28
2023-02-11T11:41:26.868Z,103018.72
2023-02-11T11:45:29.899Z,103025.63
2023-02-11T11:49:37.603Z,103021.53
2023-02-11T11:53:49.297Z,103024.59
2023-02-11T11:57:52.556Z,103018.63
2023-02-11T12:02:22.743Z,103024.25
2023-02-11T12:06:37.407Z,103032.66
2023-02-11T12:10:55.337Z,103011.91
2023-02-11T12:15:07.192Z,102999.31
2023-02-11T12:19:44.598Z,102996.41
2023-02-11T12:24:03.260Z,102984.22
2023-02-11T12:28:22.412Z,102994.78
2023-02-11T12:32:36.430Z,103000.72
2023-02-11T12:37:02.912Z,103003.50
2023-02-11T12:41:42.123Z,103009.66
2023-02-11T12:46:26.304Z,103006.59
2023-02-11T12:50:43.560Z,102994.03
2023-02-11T12:54:55.030Z,103004.53
2023-02-11T12:59:01.646Z,102998.91
2023-02-11T13:03:13.458Z,102997.28
2023-02-11T13:07:24.110Z,103007.63
2023-02-11T13:11:29.584Z,103008.81
2023-02-11T13:15:32.837Z,102991.00
2023-02-11T13:19:44.912Z,102988.94
2023-02-11T13:23:58.052Z,102986.84
2023-02-11T13:28:15.451Z,102983.44
2023-02-11T13:32:19.045Z,102992.91
2023-02-11T13:36:27.599Z,102987.28
2023-02-11T13:40:35.551Z,102986.28
2023-02-11T13:44:38.607Z,102980.00
2023-02-11T13:48:48.193Z,102982.56
2023-02-11T13:52:59.355Z,102979.22
2023-02-11T13:57:36.093Z,102998.56
2023-02-11T14:02:20.254Z,103004.66
2023-02-11T14:06:46.637Z,103005.81
2023-02-11T14:10:52.411Z,102998.38
2023-02-11T14:15:36.044Z,103001.94
2023-02-11T14:19:41.313Z,102995.97
2023-02-11T14:23:44.885Z,103001.69
2023-02-11T14:27:55.288Z,102994.94
2023-02-11T14:32:06.166Z,102999.19
2023-02-11T14:36:19.992Z,103009.88
2023-02-11T14:40:30.460Z,103014.91
2023-02-11T14:44:36.069Z,103018.47
2023-02-11T14:48:46.017Z,103014.38
2023-02-11T14:52:51.109Z,103006.88
2023-02-11T14:57:08.514Z,103015.41
2023-02-11T15:01:26.948Z,103021.31
2023-02-11T15:05:31.482Z,103013.25
2023-02-11T15:09:38.850Z,103011.88
2023-02-11T15:13:49.704Z,103011.03
2023-02-11T15:17:52.842Z,103008.31
2023-02-11T15:21:58.580Z,103003.16
2023-02-11T15:26:05.517Z,103012.34
2023-02-11T15:30:25.983Z,103004.94
2023-02-11T15:34:29.219Z,103008.66
2023-02-11T15:38:33.616Z,103024.16
2023-02-11T15:42:55.725Z,103016.91
2023-02-11T15:47:00.753Z,103025.66
2023-02-11T15:51:13.182Z,103022.63
2023-02-11T15:55:19.811Z,103037.06
2023-02-11T15:59:28.239Z,103035.53
2023-02-11T16:03:32.956Z,103034.22
2023-02-11T16:07:41.077Z,103040.31
2023-02-11T16:11:58.034Z,103043.88
2023-02-11T16:16:04.587Z,103046.78
2023-02-11T16:20:19.038Z,103050.16
2023-02-11T16:24:26.205Z,103052.41
2023-02-11T16:28:31.603Z,103060.28
2023-02-11T16:32:34.858Z,103059.63
2023-02-11T16:36:38.280Z,103058.94
2023-02-11T16:40:42.296Z,103068.50
2023-02-11T16:44:50.870Z,103090.25
2023-02-11T16:48:55.242Z,103092.97
2023-02-11T16:53:00.877Z,103096.03
2023-02-11T16:57:10.155Z,103096.41
2023-02-11T17:01:14.743Z,103104.19
2023-02-11T17:05:19.943Z,103114.78
2023-02-11T17:09:25.083Z,103112.38
2023-02-11T17:13:28.602Z,103115.78
2023-02-11T17:17:32.964Z,103115.78
2023-02-11T17:21:37.046Z,103114.47
2023-02-11T17:25:42.209Z,103109.03
2023-02-11T17:29:45.229Z,103107.63
2023-02-11T17:33:49.887Z,103123.94
2023-02-11T17:37:53.844Z,103122.25
2023-02-11T17:41:57.075Z,103123.81
2023-02-11T17:46:00.099Z,103129.13
2023-02-11T17:50:04.844Z,103138.47
2023-02-11T17:54:12.536Z,103132.53
2023-02-11T17:58:15.465Z,103128.00
2023-02-11T18:02:18.649Z,103137.53
2023-02-11T18:06:23.093Z,103137.88
2023-02-11T18:10:26.518Z,103143.31
2023-02-11T18:14:29.918Z,103149.28
2023-02-11T18:18:34.032Z,103154.88
2023-02-11T18:22:40.844Z,103165.59
2023-02-11T18:26:44.114Z,103163.00
2023-02-11T18:30:47.142Z,103167.78
2023-02-11T18:34:50.173Z,103173.03
2023-02-11T18:38:56.993Z,103166.94
2023-02-11T18:43:00.110Z,103180.34
2023-02-11T18:47:03.007Z,103189.53
2023-02-11T18:51:09.703Z,103198.88
2023-02-11T18:55:14.050Z,103198.19
2023-02-11T18:59:17.243Z,103201.91
2023-02-11T19:03:20.275Z,103195.16
2023-02-11T19:07:24.963Z,103219.75
2023-02-11T19:11:44.162Z,103220.28
2023-02-11T19:15:48.287Z,103218.56
2023-02-11T19:19:51.450Z,103222.66
2023-02-11T19:23:54.853Z,103228.25
2023-02-11T19:28:00.303Z,103223.34
2023-02-11T19:32:03.542Z,103236.06
2023-02-11T19:36:08.125Z,103240.47
2023-02-11T19:40:12.800Z,103247.28
2023-02-11T19:44:17.181Z,103261.03
2023-02-11T19:48:20.216Z,103260.34
2023-02-11T19:52:23.174Z,103264.44
2023-02-11T19:56:26.225Z,103263.59
2023-02-11T20:00:30.922Z,103264.75
2023-02-11T20:04:34.088Z,103269.00
2023-02-11T20:08:38.614Z,103284.44
2023-02-11T20:12:41.872Z,103271.72
2023-02-11T20:16:49.501Z,103287.66
2023-02-11T20:20:54.171Z,103284.78
2023-02-11T20:24:56.969Z,103289.34
2023-02-11T20:29:02.181Z,103289.72
2023-02-11T20:33:07.185Z,103289.19
2023-02-11T20:37:10.479Z,103288.69
2023-02-11T20:41:15.888Z,103286.81
2023-02-11T20:45:19.066Z,103293.94
2023-02-11T20:49:24.879Z,103293.94
2023-02-11T20:53:27.802Z,103294.97
2023-02-11T20:57:35.031Z,103290.88
2023-02-11T21:01:40.607Z,103303.78
2023-02-11T21:05:50.952Z,103305.84
2023-02-11T21:09:55.231Z,103303.13
2023-02-11T21:13:58.724Z,103298.69
2023-02-11T21:18:01.735Z,103286.31
2023-02-11T21:22:06.083Z,103283.06
2023-02-11T21:26:10.134Z,103295.13
2023-02-11T21:30:14.240Z,103302.41
2023-02-11T21:34:17.134Z,103293.06
2023-02-11T21:38:22.191Z,103291.03
2023-02-11T21:42:25.290Z,103290.16
2023-02-11T21:46:29.129Z,103303.91
2023-02-11T21:50:32.184Z,103305.78
2023-02-11T21:54:36.860Z,103323.06
2023-02-11T21:58:40.135Z,103325.06
2023-02-11T22:02:46.319Z,103328.97
2023-02-11T22:06:51.855Z,103328.44
2023-02-11T22:11:03.262Z,103337.44
2023-02-11T22:15:07.290Z,103344.56
2023-02-11T22:19:10.989Z,103337.59
2023-02-11T22:23:14.877Z,103338.97
2023-02-11T22:27:20.316Z,103341.00
2023-02-11T22:31:25.578Z,103347.59
2023-02-11T22:35:29.403Z,103340.13
2023-02-11T22:39:32.730Z,103344.03
2023-02-11T22:43:38.240Z,103348.59
2023-02-11T22:47:42.372Z,103357.03
2023-02-11T22:51:46.078Z,103349.94
2023-02-11T22:55:50.185Z,103361.13
2023-02-11T23:00:11.607Z,103360.75
2023-02-11T23:04:21.082Z,103361.94
2023-02-11T23:08:24.396Z,103363.94
2023-02-11T23:12:27.482Z,103368.69
2023-02-11T23:16:34.077Z,103368.00
2023-02-11T23:20:37.735Z,103371.56
2023-02-11T23:24:40.656Z,103364.56
2023-02-11T23:28:45.945Z,103376.78
2023-02-11T23:32:50.880Z,103382.66
2023-02-11T23:36:54.053Z,103380.63
2023-02-11T23:40:56.947Z,103379.78
2023-02-11T23:45:00.030Z,103383.22
2023-02-11T23:49:04.866Z,103388.78
2023-02-11T23:53:09.957Z,103388.63
2023-02-11T23:57:13.634Z,103385.22
